createdAt,value
2023-03-18T18:32:34.059Z,37.80
2023-03-18T18:35:39.933Z,35.50
2023-03-18T18:38:45.897Z,42.70
2023-03-18T18:41:53.109Z,36.20
2023-03-18T18:44:59.182Z,37.20
2023-03-18T18:48:11.138Z,34.00
2023-03-18T18:51:21.527Z,44.40
2023-03-18T18:54:28.547Z,38.70
2023-03-18T18:57:36.638Z,39.00
2023-03-18T19:00:42.614Z,45.00
2023-03-18T19:03:49.910Z,49.70
2023-03-18T19:06:56.370Z,36.00
2023-03-18T19:10:02.226Z,32.50
2023-03-18T19:13:14.797Z,26.40
2023-03-18T19:16:29.822Z,23.00
2023-03-18T19:19:36.667Z,39.80
2023-03-18T19:22:43.260Z,55.70
2023-03-18T19:25:49.325Z,46.60
2023-03-18T19:28:59.651Z,43.40
2023-03-18T19:32:07.287Z,44.90
2023-03-18T19:35:15.722Z,45.50
2023-03-18T19:38:22.822Z,42.70
2023-03-18T19:41:29.058Z,47.00
2023-03-18T19:47:39.225Z,46.10
2023-03-18T19:50:45.104Z,52.80
2023-03-18T19:53:51.212Z,55.90
2023-03-18T19:57:01.440Z,48.60
2023-03-18T20:00:22.009Z,40.20
2023-03-18T20:03:28.987Z,29.90
2023-03-18T20:06:34.842Z,27.60
2023-03-18T20:09:40.645Z,23.30
2023-03-18T20:12:48.479Z,28.60
2023-03-18T20:15:54.267Z,30.60
2023-03-18T20:19:00.330Z,32.80
2023-03-18T20:22:06.079Z,31.70
2023-03-18T20:25:20.244Z,31.80
2023-03-18T20:28:27.430Z,33.30
2023-03-18T20:31:33.632Z,37.20
2023-03-18T20:34:40.774Z,32.70
2023-03-18T20:37:47.345Z,34.50
2023-03-18T20:40:53.445Z,34.10
2023-03-18T20:43:59.261Z,38.70
2023-03-18T20:47:05.125Z,37.70
2023-03-18T20:50:14.332Z,49.10
2023-03-18T20:53:23.983Z,57.60
2023-03-18T20:56:33.136Z,60.20
2023-03-18T20:59:39.093Z,60.30
2023-03-18T21:02:44.925Z,69.80
2023-03-18T21:05:50.909Z,62.90
2023-03-18T21:08:56.689Z,56.50
2023-03-18T21:12:02.421Z,55.30
2023-03-18T21:15:15.362Z,60.60
2023-03-18T21:18:21.304Z,59.50
2023-03-18T21:21:30.979Z,65.80
2023-03-18T21:24:37.414Z,61.10
2023-03-18T21:30:50.419Z,67.20
2023-03-18T21:33:57.565Z,59.50
2023-03-18T21:37:03.537Z,72.70
2023-03-18T21:40:15.245Z,63.40
2023-03-18T21:43:29.708Z,56.20
2023-03-18T21:46:35.478Z,52.80
2023-03-18T21:49:42.353Z,57.80
2023-03-18T21:52:49.384Z,61.50
2023-03-18T21:55:55.788Z,58.80
2023-03-18T22:02:07.775Z,49.00
2023-03-18T22:05:19.980Z,52.10
2023-03-18T22:08:27.204Z,40.70
2023-03-18T22:11:33.022Z,42.40
2023-03-18T22:14:38.877Z,42.10
2023-03-18T22:17:44.622Z,43.10
2023-03-18T22:20:52.656Z,41.20
2023-03-18T22:24:00.397Z,39.30
2023-03-18T22:27:06.850Z,44.90
2023-03-18T22:36:29.664Z,41.30
2023-03-18T22:39:35.564Z,41.30
2023-03-18T22:42:41.592Z,47.20
2023-03-18T22:45:47.348Z,59.40
2023-03-18T22:48:53.137Z,58.10
2023-03-18T22:51:59.046Z,45.20
2023-03-18T22:55:16.208Z,47.50
2023-03-18T22:58:24.300Z,49.70
2023-03-18T23:01:32.822Z,50.40
2023-03-18T23:04:38.797Z,45.50
2023-03-18T23:07:45.118Z,45.70
2023-03-18T23:13:55.958Z,39.40
2023-03-18T23:17:01.922Z,30.40
2023-03-18T23:20:08.536Z,50.40
2023-03-18T23:23:15.686Z,47.80
2023-03-18T23:26:21.786Z,40.30
2023-03-18T23:29:27.712Z,48.80
2023-03-18T23:32:35.320Z,42.70
2023-03-18T23:35:41.986Z,32.00
2023-03-18T23:38:47.869Z,23.30
2023-03-18T23:41:53.573Z,17.70
2023-03-18T23:44:59.505Z,18.30
2023-03-18T23:48:05.812Z,15.90
2023-03-18T23:51:11.660Z,17.50
2023-03-18T23:54:17.602Z,19.40
2023-03-18T23:57:23.484Z,24.50
